sensor_id;sensor_type;location;lat;lon;timestamp;P1;durP1;ratioP1;P2;durP2;ratioP2
21675;SDS011;10999;51.332;9.458;2024-01-15T00:00:13;10.45;;;3.70;;
21675;SDS011;10999;51.332;9.458;2024-01-15T00:02:42;11.23;;;3.88;;
21675;SDS011;10999;51.332;9.458;2024-01-15T00:05:12;10.60;;;4.18;;
21675;SDS011;10999;51.332;9.458;2024-01-15T00:07:45;8.00;;;3.72;;
21675;SDS011;10999;51.332;9.458;2024-01-15T00:10:20;11.50;;;4.18;;
21675;SDS011;10999;51.332;9.458;2024-01-15T00:12:53;11.45;;;3.83;;
21675;SDS011;10999;51.332;9.458;2024-01-15T00:15:22;12.05;;;3.70;;
21675;SDS011;10999;51.332;9.458;2024-01-15T00:17:51;11.48;;;3.90;;
21675;SDS011;10999;51.332;9.458;2024-01-15T00:20:20;10.85;;;4.00;;
21675;SDS011;10999;51.332;9.458;2024-01-15T00:22:50;11.23;;;4.40;;
21675;SDS011;10999;51.332;9.458;2024-01-15T00:25:25;12.75;;;4.75;;
21675;SDS011;10999;51.332;9.458;2024-01-15T00:28:01;14.35;;;5.15;;
21675;SDS011;10999;51.332;9.458;2024-01-15T00:30:30;12.75;;;5.55;;
21675;SDS011;10999;51.332;9.458;2024-01-15T00:33:01;14.52;;;5.60;;
21675;SDS011;10999;51.332;9.458;2024-01-15T00:35:33;12.75;;;5.35;;
21675;SDS011;10999;51.332;9.458;2024-01-15T00:38:04;11.93;;;4.15;;
21675;SDS011;10999;51.332;9.458;2024-01-15T00:40:35;11.68;;;4.72;;
21675;SDS011;10999;51.332;9.458;2024-01-15T00:43:03;10.68;;;3.85;;
21675;SDS011;10999;51.332;9.458;2024-01-15T00:45:40;11.32;;;4.45;;
21675;SDS011;10999;51.332;9.458;2024-01-15T00:48:12;12.10;;;3.72;;
21675;SDS011;10999;51.332;9.458;2024-01-15T00:50:50;10.25;;;3.88;;
21675;SDS011;10999;51.332;9.458;2024-01-15T00:53:34;10.38;;;4.18;;
21675;SDS011;10999;51.332;9.458;2024-01-15T00:56:16;10.55;;;3.95;;
21675;SDS011;10999;51.332;9.458;2024-01-15T00:59:14;9.68;;;3.72;;
21675;SDS011;10999;51.332;9.458;2024-01-15T01:01:51;11.00;;;3.58;;
21675;SDS011;10999;51.332;9.458;2024-01-15T01:04:29;9.75;;;3.85;;
21675;SDS011;10999;51.332;9.458;2024-01-15T01:07:18;9.68;;;3.45;;
21675;SDS011;10999;51.332;9.458;2024-01-15T01:10:12;9.50;;;3.55;;
21675;SDS011;10999;51.332;9.458;2024-01-15T01:12:58;9.50;;;3.92;;
21675;SDS011;10999;51.332;9.458;2024-01-15T01:15:45;10.13;;;3.42;;
21675;SDS011;10999;51.332;9.458;2024-01-15T01:19:01;7.40;;;3.05;;
21675;SDS011;10999;51.332;9.458;2024-01-15T01:22:21;8.52;;;3.25;;
21675;SDS011;10999;51.332;9.458;2024-01-15T01:25:06;9.27;;;3.40;;
21675;SDS011;10999;51.332;9.458;2024-01-15T01:27:55;9.13;;;3.33;;
21675;SDS011;10999;51.332;9.458;2024-01-15T10:52:11;4.03;;;1.40;;
21675;SDS011;10999;51.332;9.458;2024-01-15T10:54:44;4.55;;;1.38;;
21675;SDS011;10999;51.332;9.458;2024-01-15T10:57:17;8.25;;;1.80;;
21675;SDS011;10999;51.332;9.458;2024-01-15T10:59:50;6.85;;;2.10;;
21675;SDS011;10999;51.332;9.458;2024-01-15T11:02:19;5.10;;;1.77;;
21675;SDS011;10999;51.332;9.458;2024-01-15T11:04:49;4.60;;;1.45;;
21675;SDS011;10999;51.332;9.458;2024-01-15T11:07:21;5.03;;;1.38;;
21675;SDS011;10999;51.332;9.458;2024-01-15T11:09:55;5.40;;;1.70;;
21675;SDS011;10999;51.332;9.458;2024-01-15T11:12:28;3.70;;;1.20;;
21675;SDS011;10999;51.332;9.458;2024-01-15T11:15:01;5.82;;;1.58;;
21675;SDS011;10999;51.332;9.458;2024-01-15T11:17:59;4.93;;;1.65;;
21675;SDS011;10999;51.332;9.458;2024-01-15T11:20:30;5.05;;;1.58;;
21675;SDS011;10999;51.332;9.458;2024-01-15T11:23:01;6.03;;;1.67;;
21675;SDS011;10999;51.332;9.458;2024-01-15T11:25:36;4.55;;;1.70;;
21675;SDS011;10999;51.332;9.458;2024-01-15T11:28:12;4.47;;;1.45;;
21675;SDS011;10999;51.332;9.458;2024-01-15T11:31:17;5.10;;;1.90;;
21675;SDS011;10999;51.332;9.458;2024-01-15T11:34:02;4.82;;;1.80;;
21675;SDS011;10999;51.332;9.458;2024-01-15T11:40:08;6.95;;;2.38;;
21675;SDS011;10999;51.332;9.458;2024-01-15T11:42:51;9.43;;;3.90;;
21675;SDS011;10999;51.332;9.458;2024-01-15T11:45:40;9.98;;;3.40;;
21675;SDS011;10999;51.332;9.458;2024-01-15T11:48:24;10.55;;;3.33;;
21675;SDS011;10999;51.332;9.458;2024-01-15T11:51:15;6.57;;;2.53;;
21675;SDS011;10999;51.332;9.458;2024-01-15T11:54:02;6.95;;;2.47;;
21675;SDS011;10999;51.332;9.458;2024-01-15T11:56:59;5.10;;;1.88;;
21675;SDS011;10999;51.332;9.458;2024-01-15T11:59:45;3.75;;;1.50;;
21675;SDS011;10999;51.332;9.458;2024-01-15T12:02:35;4.78;;;1.63;;
21675;SDS011;10999;51.332;9.458;2024-01-15T12:05:20;2.85;;;0.82;;
21675;SDS011;10999;51.332;9.458;2024-01-15T12:08:12;3.13;;;0.80;;
21675;SDS011;10999;51.332;9.458;2024-01-15T12:11:06;2.40;;;0.80;;
21675;SDS011;10999;51.332;9.458;2024-01-15T12:13:50;3.30;;;0.90;;
21675;SDS011;10999;51.332;9.458;2024-01-15T12:16:22;2.55;;;0.73;;
21675;SDS011;10999;51.332;9.458;2024-01-15T12:18:57;3.20;;;0.73;;
21675;SDS011;10999;51.332;9.458;2024-01-15T12:21:31;3.42;;;0.68;;
21675;SDS011;10999;51.332;9.458;2024-01-15T12:24:07;1.63;;;0.65;;
21675;SDS011;10999;51.332;9.458;2024-01-15T12:26:34;2.58;;;0.77;;
21675;SDS011;10999;51.332;9.458;2024-01-15T12:29:02;1.80;;;0.77;;
21675;SDS011;10999;51.332;9.458;2024-01-15T12:31:32;3.42;;;0.90;;
21675;SDS011;10999;51.332;9.458;2024-01-15T12:34:02;3.42;;;0.88;;
21675;SDS011;10999;51.332;9.458;2024-01-15T12:36:30;4.28;;;0.90;;
21675;SDS011;10999;51.332;9.458;2024-01-15T12:39:01;2.13;;;0.60;;
21675;SDS011;10999;51.332;9.458;2024-01-15T12:41:28;2.47;;;0.80;;
21675;SDS011;10999;51.332;9.458;2024-01-15T12:43:56;3.67;;;0.82;;
21675;SDS011;10999;51.332;9.458;2024-01-15T12:46:26;2.42;;;0.70;;
21675;SDS011;10999;51.332;9.458;2024-01-15T12:48:54;1.45;;;0.60;;
21675;SDS011;10999;51.332;9.458;2024-01-15T12:51:25;2.22;;;0.80;;
21675;SDS011;10999;51.332;9.458;2024-01-15T12:53:53;1.75;;;0.70;;
21675;SDS011;10999;51.332;9.458;2024-01-15T12:56:20;3.78;;;0.65;;
21675;SDS011;10999;51.332;9.458;2024-01-15T12:58:47;3.08;;;0.65;;
21675;SDS011;10999;51.332;9.458;2024-01-15T13:01:14;2.42;;;0.68;;
21675;SDS011;10999;51.332;9.458;2024-01-15T13:03:41;1.90;;;0.73;;
21675;SDS011;10999;51.332;9.458;2024-01-15T13:06:08;1.95;;;0.88;;
21675;SDS011;10999;51.332;9.458;2024-01-15T13:08:36;6.80;;;1.02;;
21675;SDS011;10999;51.332;9.458;2024-01-15T13:11:04;4.45;;;0.68;;
21675;SDS011;10999;51.332;9.458;2024-01-15T13:13:31;1.90;;;0.70;;
21675;SDS011;10999;51.332;9.458;2024-01-15T13:16:00;3.03;;;0.75;;
21675;SDS011;10999;51.332;9.458;2024-01-15T13:18:30;4.32;;;0.68;;
21675;SDS011;10999;51.332;9.458;2024-01-15T13:20:57;2.78;;;0.65;;
21675;SDS011;10999;51.332;9.458;2024-01-15T13:23:25;3.15;;;1.00;;
21675;SDS011;10999;51.332;9.458;2024-01-15T13:25:52;2.55;;;0.80;;
21675;SDS011;10999;51.332;9.458;2024-01-15T13:28:19;2.22;;;0.57;;
21675;SDS011;10999;51.332;9.458;2024-01-15T13:30:48;1.35;;;0.50;;
21675;SDS011;10999;51.332;9.458;2024-01-15T13:33:16;2.45;;;0.80;;
21675;SDS011;10999;51.332;9.458;2024-01-15T13:35:43;5.80;;;1.08;;
21675;SDS011;10999;51.332;9.458;2024-01-15T13:38:10;3.35;;;0.75;;
21675;SDS011;10999;51.332;9.458;2024-01-15T13:40:37;4.25;;;0.63;;
21675;SDS011;10999;51.332;9.458;2024-01-15T13:43:04;2.95;;;0.60;;
21675;SDS011;10999;51.332;9.458;2024-01-15T13:45:34;5.07;;;1.27;;
21675;SDS011;10999;51.332;9.458;2024-01-15T13:48:04;4.05;;;1.00;;
21675;SDS011;10999;51.332;9.458;2024-01-15T13:50:32;4.10;;;0.82;;
21675;SDS011;10999;51.332;9.458;2024-01-15T13:52:59;4.03;;;0.80;;
21675;SDS011;10999;51.332;9.458;2024-01-15T13:55:26;3.70;;;1.00;;
21675;SDS011;10999;51.332;9.458;2024-01-15T13:57:53;4.50;;;1.55;;
21675;SDS011;10999;51.332;9.458;2024-01-15T14:00:20;5.55;;;1.10;;
21675;SDS011;10999;51.332;9.458;2024-01-15T14:02:47;3.75;;;1.38;;
21675;SDS011;10999;51.332;9.458;2024-01-15T14:05:14;5.90;;;1.27;;
21675;SDS011;10999;51.332;9.458;2024-01-15T14:07:42;4.80;;;1.10;;
21675;SDS011;10999;51.332;9.458;2024-01-15T14:10:09;6.18;;;1.15;;
21675;SDS011;10999;51.332;9.458;2024-01-15T14:12:36;3.30;;;1.17;;
21675;SDS011;10999;51.332;9.458;2024-01-15T14:15:03;5.75;;;1.60;;
21675;SDS011;10999;51.332;9.458;2024-01-15T14:17:32;2.15;;;0.90;;
21675;SDS011;10999;51.332;9.458;2024-01-15T14:19:58;5.43;;;1.33;;
21675;SDS011;10999;51.332;9.458;2024-01-15T14:22:25;3.53;;;1.00;;
21675;SDS011;10999;51.332;9.458;2024-01-15T14:24:52;4.85;;;1.50;;
21675;SDS011;10999;51.332;9.458;2024-01-15T14:27:20;5.15;;;1.13;;
21675;SDS011;10999;51.332;9.458;2024-01-15T14:29:48;5.57;;;2.03;;
21675;SDS011;10999;51.332;9.458;2024-01-15T14:32:18;2.67;;;1.15;;
21675;SDS011;10999;51.332;9.458;2024-01-15T14:34:49;4.40;;;1.40;;
21675;SDS011;10999;51.332;9.458;2024-01-15T14:37:17;5.40;;;1.58;;
21675;SDS011;10999;51.332;9.458;2024-01-15T14:39:44;2.17;;;1.02;;
21675;SDS011;10999;51.332;9.458;2024-01-15T14:42:15;6.63;;;1.45;;
21675;SDS011;10999;51.332;9.458;2024-01-15T14:44:57;4.28;;;1.00;;
21675;SDS011;10999;51.332;9.458;2024-01-15T14:47:36;3.72;;;1.10;;
21675;SDS011;10999;51.332;9.458;2024-01-15T14:50:11;5.35;;;1.83;;
21675;SDS011;10999;51.332;9.458;2024-01-15T14:52:45;3.47;;;1.30;;
21675;SDS011;10999;51.332;9.458;2024-01-15T14:55:24;5.18;;;1.25;;
21675;SDS011;10999;51.332;9.458;2024-01-15T14:58:02;3.03;;;1.23;;
21675;SDS011;10999;51.332;9.458;2024-01-15T15:01:20;5.68;;;1.48;;
21675;SDS011;10999;51.332;9.458;2024-01-15T15:04:19;8.23;;;1.67;;
21675;SDS011;10999;51.332;9.458;2024-01-15T15:07:22;2.97;;;1.38;;
21675;SDS011;10999;51.332;9.458;2024-01-15T15:10:10;5.63;;;1.65;;
21675;SDS011;10999;51.332;9.458;2024-01-15T15:12:39;4.32;;;1.55;;
21675;SDS011;10999;51.332;9.458;2024-01-15T15:15:16;5.15;;;1.40;;
21675;SDS011;10999;51.332;9.458;2024-01-15T15:17:52;3.65;;;1.48;;
21675;SDS011;10999;51.332;9.458;2024-01-15T15:20:31;4.90;;;1.55;;
21675;SDS011;10999;51.332;9.458;2024-01-15T15:23:12;4.50;;;1.40;;
21675;SDS011;10999;51.332;9.458;2024-01-15T15:25:43;4.72;;;1.70;;
21675;SDS011;10999;51.332;9.458;2024-01-15T15:28:11;4.05;;;1.88;;
21675;SDS011;10999;51.332;9.458;2024-01-15T15:30:41;6.72;;;1.85;;
21675;SDS011;10999;51.332;9.458;2024-01-15T15:33:09;3.67;;;1.40;;
21675;SDS011;10999;51.332;9.458;2024-01-15T15:35:39;5.10;;;2.03;;
21675;SDS011;10999;51.332;9.458;2024-01-15T15:38:07;3.70;;;1.30;;
21675;SDS011;10999;51.332;9.458;2024-01-15T15:40:36;5.53;;;2.15;;
21675;SDS011;10999;51.332;9.458;2024-01-15T15:43:05;5.13;;;1.30;;
21675;SDS011;10999;51.332;9.458;2024-01-15T15:45:33;4.07;;;1.40;;
21675;SDS011;10999;51.332;9.458;2024-01-15T15:48:01;4.07;;;1.35;;
21675;SDS011;10999;51.332;9.458;2024-01-15T15:50:38;4.40;;;1.63;;
21675;SDS011;10999;51.332;9.458;2024-01-15T15:53:08;5.15;;;1.80;;
21675;SDS011;10999;51.332;9.458;2024-01-15T15:55:39;5.55;;;1.50;;
21675;SDS011;10999;51.332;9.458;2024-01-15T15:58:10;4.55;;;1.60;;
21675;SDS011;10999;51.332;9.458;2024-01-15T16:00:38;4.95;;;1.67;;
21675;SDS011;10999;51.332;9.458;2024-01-15T16:03:07;4.28;;;1.50;;
21675;SDS011;10999;51.332;9.458;2024-01-15T16:05:37;6.40;;;1.80;;
21675;SDS011;10999;51.332;9.458;2024-01-15T16:08:17;4.97;;;1.50;;
21675;SDS011;10999;51.332;9.458;2024-01-15T16:10:51;4.38;;;1.33;;
21675;SDS011;10999;51.332;9.458;2024-01-15T16:13:19;4.47;;;1.38;;
21675;SDS011;10999;51.332;9.458;2024-01-15T16:15:49;5.03;;;1.75;;
21675;SDS011;10999;51.332;9.458;2024-01-15T16:18:41;4.78;;;1.55;;
21675;SDS011;10999;51.332;9.458;2024-01-15T16:21:35;3.05;;;1.25;;
21675;SDS011;10999;51.332;9.458;2024-01-15T16:24:26;4.38;;;1.63;;
21675;SDS011;10999;51.332;9.458;2024-01-15T16:27:11;4.63;;;2.03;;
21675;SDS011;10999;51.332;9.458;2024-01-15T16:29:39;4.78;;;1.73;;
21675;SDS011;10999;51.332;9.458;2024-01-15T16:32:09;5.15;;;1.95;;
21675;SDS011;10999;51.332;9.458;2024-01-15T16:34:40;8.65;;;1.98;;
21675;SDS011;10999;51.332;9.458;2024-01-15T16:37:24;6.70;;;1.80;;
21675;SDS011;10999;51.332;9.458;2024-01-15T16:40:06;7.88;;;2.28;;
21675;SDS011;10999;51.332;9.458;2024-01-15T16:42:38;4.70;;;2.00;;
21675;SDS011;10999;51.332;9.458;2024-01-15T16:45:07;5.75;;;1.70;;
21675;SDS011;10999;51.332;9.458;2024-01-15T16:47:38;3.25;;;1.25;;
21675;SDS011;10999;51.332;9.458;2024-01-15T16:50:11;9.18;;;2.35;;
21675;SDS011;10999;51.332;9.458;2024-01-15T16:52:59;4.15;;;1.48;;
21675;SDS011;10999;51.332;9.458;2024-01-15T16:55:31;4.68;;;1.45;;
21675;SDS011;10999;51.332;9.458;2024-01-15T16:58:18;4.47;;;1.50;;
21675;SDS011;10999;51.332;9.458;2024-01-15T17:00:50;3.17;;;1.30;;
21675;SDS011;10999;51.332;9.458;2024-01-15T17:03:20;8.18;;;1.88;;
21675;SDS011;10999;51.332;9.458;2024-01-15T17:05:53;4.07;;;1.55;;
21675;SDS011;10999;51.332;9.458;2024-01-15T17:08:29;5.03;;;1.70;;
21675;SDS011;10999;51.332;9.458;2024-01-15T17:11:07;3.90;;;1.48;;
21675;SDS011;10999;51.332;9.458;2024-01-15T17:13:36;5.90;;;1.73;;
21675;SDS011;10999;51.332;9.458;2024-01-15T17:16:09;4.78;;;2.00;;
21675;SDS011;10999;51.332;9.458;2024-01-15T17:18:40;4.55;;;1.80;;
21675;SDS011;10999;51.332;9.458;2024-01-15T17:21:09;3.97;;;1.35;;
21675;SDS011;10999;51.332;9.458;2024-01-15T17:23:41;4.82;;;1.70;;
21675;SDS011;10999;51.332;9.458;2024-01-15T17:26:16;5.28;;;1.90;;
21675;SDS011;10999;51.332;9.458;2024-01-15T17:28:51;7.47;;;2.05;;
21675;SDS011;10999;51.332;9.458;2024-01-15T17:31:26;7.68;;;1.80;;
21675;SDS011;10999;51.332;9.458;2024-01-15T17:34:03;6.18;;;1.75;;
21675;SDS011;10999;51.332;9.458;2024-01-15T17:36:35;4.30;;;1.58;;
21675;SDS011;10999;51.332;9.458;2024-01-15T17:39:22;3.00;;;1.27;;
21675;SDS011;10999;51.332;9.458;2024-01-15T17:41:56;7.03;;;1.75;;
21675;SDS011;10999;51.332;9.458;2024-01-15T17:44:37;5.00;;;1.50;;
21675;SDS011;10999;51.332;9.458;2024-01-15T17:47:24;3.13;;;1.38;;
21675;SDS011;10999;51.332;9.458;2024-01-15T17:50:15;7.15;;;1.63;;
21675;SDS011;10999;51.332;9.458;2024-01-15T17:52:47;5.22;;;1.45;;
21675;SDS011;10999;51.332;9.458;2024-01-15T17:55:28;5.95;;;1.63;;
21675;SDS011;10999;51.332;9.458;2024-01-15T17:58:12;6.78;;;1.67;;
21675;SDS011;10999;51.332;9.458;2024-01-15T18:00:42;4.10;;;1.50;;
21675;SDS011;10999;51.332;9.458;2024-01-15T18:03:37;4.38;;;1.27;;
21675;SDS011;10999;51.332;9.458;2024-01-15T18:06:30;3.55;;;1.20;;
21675;SDS011;10999;51.332;9.458;2024-01-15T18:09:03;3.97;;;1.50;;
21675;SDS011;10999;51.332;9.458;2024-01-15T18:11:34;6.22;;;1.55;;
21675;SDS011;10999;51.332;9.458;2024-01-15T18:14:17;7.88;;;1.65;;
21675;SDS011;10999;51.332;9.458;2024-01-15T18:16:57;5.47;;;1.50;;
21675;SDS011;10999;51.332;9.458;2024-01-15T18:19:26;5.32;;;1.75;;
21675;SDS011;10999;51.332;9.458;2024-01-15T18:21:55;4.47;;;1.45;;
21675;SDS011;10999;51.332;9.458;2024-01-15T18:24:27;7.03;;;1.80;;
21675;SDS011;10999;51.332;9.458;2024-01-15T18:26:59;5.43;;;1.67;;
21675;SDS011;10999;51.332;9.458;2024-01-15T18:34:33;5.85;;;1.38;;
21675;SDS011;10999;51.332;9.458;2024-01-15T18:37:03;7.38;;;2.13;;
21675;SDS011;10999;51.332;9.458;2024-01-15T18:40:05;6.22;;;1.48;;
21675;SDS011;10999;51.332;9.458;2024-01-15T18:44:03;4.03;;;1.48;;
21675;SDS011;10999;51.332;9.458;2024-01-15T18:47:36;5.05;;;2.45;;
21675;SDS011;10999;51.332;9.458;2024-01-15T18:55:01;4.88;;;1.38;;
21675;SDS011;10999;51.332;9.458;2024-01-15T18:58:48;4.97;;;1.45;;
